Time;durP1;ratioP1;P1;durP2;ratioP2;P2;SDS_P1;SDS_P2;PMS_P1;PMS_P2;Temp;Humidity;BMP_temperature;BMP_pressure;BME280_temperature;BME280_humidity;BME280_pressure;Samples;Min_cycle;Max_cycle;Signal;HPM_P1;HPM_P2
2022/04/05 00:00:28;;;;;;;18.70;12.05;;;4.20;99.90;;;;;;5044265;28;20041;-75
2022/04/05 00:02:55;;;;;;;17.42;10.40;;;4.10;99.90;;;;;;5045629;28;20469;-76
2022/04/05 00:05:21;;;;;;;20.02;11.98;;;4.10;99.90;;;;;;5047866;28;20036;-76
2022/04/05 00:07:47;;;;;;;20.17;11.77;;;4.20;99.90;;;;;;5041369;28;20092;-76
2022/04/05 00:10:13;;;;;;;16.05;10.85;;;4.20;99.80;;;;;;5043105;28;20556;-76
2022/04/05 00:12:40;;;;;;;18.45;12.15;;;4.20;99.80;;;;;;5048018;28;20527;-76
2022/04/05 00:15:07;;;;;;;18.35;11.10;;;4.10;99.90;;;;;;5039924;28;20495;-75
2022/04/05 00:17:33;;;;;;;15.35;10.35;;;4.10;99.80;;;;;;5046381;28;20111;-75
2022/04/05 00:19:58;;;;;;;15.70;9.50;;;4.30;99.70;;;;;;5039470;28;20081;-75
2022/04/05 00:22:24;;;;;;;16.33;10.90;;;4.30;99.50;;;;;;5049039;28;20041;-76
2022/04/05 00:24:50;;;;;;;17.73;11.05;;;4.10;99.80;;;;;;5045488;28;20043;-75
2022/04/05 00:27:16;;;;;;;20.45;11.20;;;4.20;99.90;;;;;;5049911;28;20056;-76
2022/04/05 00:29:42;;;;;;;18.00;10.18;;;4.30;99.70;;;;;;5048199;28;20029;-77
2022/04/05 00:32:09;;;;;;;18.92;12.02;;;4.30;99.60;;;;;;5040615;28;20032;-76
2022/04/05 00:34:35;;;;;;;20.38;11.75;;;4.20;99.90;;;;;;5049073;28;20040;-76
2022/04/05 00:37:01;;;;;;;17.92;10.90;;;4.10;99.90;;;;;;5048277;28;20029;-75
2022/04/05 00:39:27;;;;;;;18.00;11.40;;;4.00;99.90;;;;;;5046698;28;20113;-76
2022/04/05 00:41:53;;;;;;;18.08;11.10;;;3.90;99.90;;;;;;5046065;28;20111;-76
2022/04/05 00:44:19;;;;;;;16.73;11.32;;;3.80;99.90;;;;;;5047082;28;20048;-76
2022/04/05 00:46:45;;;;;;;18.52;11.05;;;3.90;99.90;;;;;;5043460;28;20041;-76
2022/04/05 00:49:17;;;;;;;18.15;12.68;;;3.90;99.90;;;;;;5044721;28;20423;-75
2022/04/05 00:51:42;;;;;;;17.67;11.05;;;3.90;99.90;;;;;;5045663;28;20391;-75
2022/04/05 00:54:10;;;;;;;18.30;11.68;;;4.10;99.90;;;;;;5045417;28;20033;-76
2022/04/05 00:56:36;;;;;;;17.27;11.50;;;4.10;99.90;;;;;;5040631;28;20450;-76
2022/04/05 00:59:04;;;;;;;21.05;12.40;;;4.10;99.90;;;;;;5043419;28;20110;-75
2022/04/05 01:01:31;;;;;;;18.88;11.27;;;4.30;99.90;;;;;;5036761;28;20109;-75
2022/04/05 01:03:57;;;;;;;15.77;10.00;;;4.40;99.70;;;;;;5036791;28;20041;-75
2022/04/05 01:06:29;;;;;;;17.13;11.38;;;4.30;99.40;;;;;;5036029;28;20047;-76
2022/04/05 01:08:56;;;;;;;20.33;11.65;;;4.30;99.60;;;;;;5044034;28;20505;-75
2022/04/05 01:11:23;;;;;;;18.92;12.20;;;4.30;99.80;;;;;;5039535;28;20036;-76
2022/04/05 01:13:48;;;;;;;23.67;10.50;;;4.20;99.90;;;;;;5045170;28;20455;-75
2022/04/05 01:16:15;;;;;;;14.27;8.93;;;4.20;99.90;;;;;;5037156;28;20076;-76
2022/04/05 01:18:41;;;;;;;15.75;10.32;;;4.50;99.50;;;;;;5044725;28;20445;-76
2022/04/05 01:21:07;;;;;;;15.45;9.55;;;4.40;99.40;;;;;;5042668;28;20032;-76
2022/04/05 01:23:33;;;;;;;15.93;9.38;;;4.20;99.60;;;;;;5041588;28;20044;-76
2022/04/05 01:25:59;;;;;;;15.48;10.48;;;4.20;99.80;;;;;;5040952;28;20032;-75
2022/04/05 01:28:25;;;;;;;17.10;10.25;;;4.40;99.60;;;;;;5048077;28;20044;-75
2022/04/05 01:30:52;;;;;;;12.30;8.00;;;4.30;99.60;;;;;;5043918;28;20033;-75
2022/04/05 01:33:18;;;;;;;13.00;8.77;;;4.50;99.70;;;;;;5048037;28;20033;-75
2022/04/05 01:35:44;;;;;;;16.48;10.13;;;4.30;99.70;;;;;;5042675;28;20029;-75
2022/04/05 01:38:10;;;;;;;14.32;9.32;;;4.30;99.90;;;;;;5047280;28;20029;-76
2022/04/05 01:40:38;;;;;;;17.25;9.35;;;4.20;99.80;;;;;;5042433;28;20045;-76
2022/04/05 01:43:04;;;;;;;19.65;9.68;;;4.10;99.90;;;;;;5044687;28;20500;-76
2022/04/05 01:45:30;;;;;;;15.35;9.77;;;3.90;99.90;;;;;;5042862;28;20033;-75
2022/04/05 01:47:55;;;;;;;14.35;9.45;;;3.80;99.90;;;;;;5047773;28;20394;-75
2022/04/05 01:50:21;;;;;;;14.90;9.43;;;3.80;99.90;;;;;;5043646;28;20052;-75
2022/04/05 01:52:46;;;;;;;17.50;10.50;;;3.70;99.90;;;;;;5049278;28;20041;-75
2022/04/05 01:55:12;;;;;;;17.15;10.82;;;3.60;99.90;;;;;;5038172;28;20029;-76
2022/04/05 01:57:38;;;;;;;20.67;9.70;;;3.70;99.90;;;;;;5048061;28;20056;-76
2022/04/05 02:00:07;;;;;;;14.52;10.05;;;3.80;99.90;;;;;;5042358;28;20051;-76
2022/04/05 02:02:33;;;;;;;18.88;10.77;;;3.80;99.90;;;;;;5040400;28;20441;-76
2022/04/05 02:04:58;;;;;;;15.98;10.85;;;3.80;99.90;;;;;;5038765;28;20083;-76
2022/04/05 02:07:24;;;;;;;17.75;10.25;;;3.80;99.90;;;;;;5048832;28;20044;-75
2022/04/05 02:09:50;;;;;;;15.80;10.32;;;3.70;99.90;;;;;;5041685;28;20013;-75
2022/04/05 02:12:17;;;;;;;18.33;10.70;;;3.70;99.90;;;;;;5054025;28;20040;-74
2022/04/05 02:14:43;;;;;;;15.55;9.60;;;3.70;99.90;;;;;;5046876;28;20033;-76
2022/04/05 02:17:09;;;;;;;16.83;10.38;;;3.90;99.90;;;;;;5045786;28;20037;-75
2022/04/05 02:19:38;;;;;;;15.75;10.73;;;3.60;99.90;;;;;;5043476;28;20045;-76
2022/04/05 02:22:04;;;;;;;15.60;9.88;;;3.70;99.90;;;;;;5051701;28;20025;-76
2022/04/05 02:24:30;;;;;;;18.33;10.98;;;3.50;99.90;;;;;;5046774;28;20124;-75
2022/04/05 02:26:56;;;;;;;16.98;11.30;;;3.40;99.90;;;;;;5053679;28;20087;-75
2022/04/05 02:29:22;;;;;;;17.50;11.90;;;3.40;99.90;;;;;;5047248;28;20033;-76
2022/04/05 02:31:47;;;;;;;16.27;10.23;;;3.60;99.90;;;;;;5051514;28;20039;-75
2022/04/05 02:34:13;;;;;;;18.52;11.15;;;3.60;99.90;;;;;;5046789;28;20025;-76
2022/04/05 02:36:39;;;;;;;16.25;10.98;;;3.50;99.90;;;;;;5049060;28;20067;-75
2022/04/05 02:39:06;;;;;;;17.95;11.70;;;3.60;99.90;;;;;;5047584;28;20502;-75
2022/04/05 02:41:31;;;;;;;13.85;8.38;;;3.60;99.90;;;;;;5048648;28;20060;-75
2022/04/05 02:43:58;;;;;;;20.48;12.15;;;3.80;99.90;;;;;;5050472;28;20530;-75
2022/04/05 02:46:24;;;;;;;15.65;10.77;;;3.70;99.90;;;;;;5051765;28;20040;-76
2022/04/05 02:48:53;;;;;;;16.42;10.27;;;3.70;99.90;;;;;;5043457;28;20036;-76
2022/04/05 02:51:19;;;;;;;14.43;9.95;;;3.60;99.90;;;;;;5048318;28;20041;-75
2022/04/05 02:53:45;;;;;;;13.98;9.55;;;3.70;99.90;;;;;;5047414;28;20033;-75
2022/04/05 02:56:10;;;;;;;15.07;9.98;;;3.70;99.90;;;;;;5052034;28;20524;-76
2022/04/05 02:58:37;;;;;;;16.50;9.90;;;3.60;99.90;;;;;;5049150;28;20060;-76
2022/04/05 03:01:04;;;;;;;14.18;9.15;;;3.80;99.90;;;;;;5046202;28;20033;-74
2022/04/05 03:03:30;;;;;;;17.02;10.18;;;3.90;99.90;;;;;;5044195;28;20063;-74
2022/04/05 03:05:56;;;;;;;14.13;9.20;;;3.50;99.90;;;;;;5039006;28;20029;-74
2022/04/05 03:08:22;;;;;;;14.80;8.95;;;3.50;99.90;;;;;;5043555;28;20502;-74
2022/04/05 03:10:49;;;;;;;17.42;9.68;;;3.50;99.90;;;;;;5042164;28;20039;-75
2022/04/05 03:13:15;;;;;;;15.13;9.95;;;3.40;99.90;;;;;;5045977;28;20115;-74
2022/04/05 03:15:40;;;;;;;15.73;9.30;;;3.40;99.90;;;;;;5043482;28;20375;-74
2022/04/05 03:18:06;;;;;;;13.00;9.18;;;3.40;99.90;;;;;;5030194;28;20033;-75
2022/04/05 03:20:32;;;;;;;12.45;7.97;;;3.40;99.90;;;;;;5027051;28;20745;-75
2022/04/05 03:23:00;;;;;;;14.68;9.70;;;3.60;99.90;;;;;;5028290;28;20398;-74
2022/04/05 03:25:26;;;;;;;15.85;8.05;;;3.70;99.90;;;;;;5033852;28;20037;-75
2022/04/05 03:27:52;;;;;;;12.27;7.75;;;3.80;99.90;;;;;;5033090;28;20029;-75
2022/04/05 03:30:22;;;;;;;15.45;8.52;;;3.70;99.90;;;;;;5023168;28;20044;-74
2022/04/05 03:32:48;;;;;;;14.20;8.70;;;3.80;99.90;;;;;;5022628;28;20021;-74
2022/04/05 03:35:14;;;;;;;15.73;8.57;;;3.80;99.90;;;;;;5037947;28;20067;-75
2022/04/05 03:37:41;;;;;;;14.63;7.68;;;3.80;99.90;;;;;;5024194;28;20037;-75
2022/04/05 03:40:07;;;;;;;13.77;8.02;;;3.90;99.90;;;;;;5029110;28;20541;-75
2022/04/05 03:42:34;;;;;;;11.93;7.65;;;3.70;99.90;;;;;;5046203;28;20082;-76
2022/04/05 03:45:00;;;;;;;14.30;8.93;;;3.90;99.90;;;;;;5042915;28;20120;-75
2022/04/05 03:47:27;;;;;;;14.52;8.45;;;3.80;99.90;;;;;;5043928;28;20361;-74
2022/04/05 03:49:53;;;;;;;12.00;8.43;;;3.90;99.90;;;;;;5033216;28;20057;-74
2022/04/05 03:52:19;;;;;;;15.98;8.63;;;3.70;99.90;;;;;;5046402;28;20041;-75
2022/04/05 03:54:45;;;;;;;16.23;8.27;;;3.90;99.90;;;;;;5033615;28;20510;-75
2022/04/05 03:57:11;;;;;;;14.80;8.45;;;3.90;99.90;;;;;;5043950;28;20044;-74
2022/04/05 03:59:37;;;;;;;11.75;7.97;;;3.90;99.90;;;;;;5037929;28;20033;-75
2022/04/05 04:02:03;;;;;;;14.20;8.18;;;3.80;99.90;;;;;;5041382;28;20033;-75
2022/04/05 04:04:29;;;;;;;14.60;8.95;;;3.70;99.90;;;;;;5036039;28;20060;-74
2022/04/05 04:06:54;;;;;;;13.02;8.00;;;3.60;99.90;;;;;;5044182;28;20060;-75
2022/04/05 04:09:20;;;;;;;13.88;8.00;;;3.60;99.90;;;;;;5027646;28;20048;-75
2022/04/05 04:11:46;;;;;;;12.82;8.23;;;3.80;99.90;;;;;;5016448;28;20029;-77
2022/04/05 04:14:12;;;;;;;14.70;9.35;;;3.80;99.90;;;;;;5019037;28;20068;-75
2022/04/05 04:16:37;;;;;;;14.77;8.27;;;3.90;99.90;;;;;;5017347;28;20091;-74
2022/04/05 04:19:04;;;;;;;12.63;7.88;;;3.90;99.90;;;;;;5024528;28;20131;-75
2022/04/05 04:21:29;;;;;;;14.95;9.00;;;3.80;99.90;;;;;;5038964;28;20425;-76
2022/04/05 04:23:55;;;;;;;11.77;8.00;;;3.70;99.90;;;;;;5041485;28;20041;-74
2022/04/05 04:26:21;;;;;;;14.02;8.50;;;3.70;99.90;;;;;;5043272;28;20496;-74
2022/04/05 04:28:51;;;;;;;13.65;8.13;;;3.80;99.90;;;;;;5039650;28;20072;-74
2022/04/05 04:31:17;;;;;;;14.73;8.40;;;3.60;99.90;;;;;;5034360;28;20436;-74
2022/04/05 04:33:43;;;;;;;12.80;8.45;;;3.70;99.90;;;;;;5042576;28;20021;-74
2022/04/05 04:36:08;;;;;;;14.35;8.80;;;3.80;99.90;;;;;;5038971;28;20055;-75
2022/04/05 04:38:34;;;;;;;13.75;8.23;;;3.70;99.90;;;;;;5028983;28;20045;-75
2022/04/05 04:41:00;;;;;;;13.45;7.55;;;3.80;99.90;;;;;;5040607;28;20095;-74
2022/04/05 04:43:27;;;;;;;14.02;8.43;;;3.90;99.90;;;;;;5043407;28;20064;-74
2022/04/05 04:45:53;;;;;;;12.73;7.70;;;3.90;99.90;;;;;;5036458;28;20104;-75
2022/04/05 04:48:19;;;;;;;11.77;7.20;;;4.10;99.90;;;;;;5037630;28;20026;-75
2022/04/05 04:50:49;;;;;;;12.50;7.95;;;4.20;99.90;;;;;;5034480;28;20028;-75
2022/04/05 04:53:14;;;;;;;13.70;8.18;;;4.00;99.90;;;;;;5041107;28;20029;-77
2022/04/05 04:55:40;;;;;;;11.68;7.25;;;4.20;99.90;;;;;;5036114;28;20031;-74
2022/04/05 04:58:06;;;;;;;11.27;7.68;;;4.20;99.90;;;;;;5042005;28;20120;-74
2022/04/05 05:00:32;;;;;;;12.88;8.52;;;4.00;99.90;;;;;;5033405;28;20424;-75
2022/04/05 05:02:57;;;;;;;12.25;8.00;;;4.00;99.90;;;;;;5033793;28;20154;-74
2022/04/05 05:05:23;;;;;;;14.88;8.95;;;4.00;99.90;;;;;;5031957;28;20551;-75
2022/04/05 05:07:51;;;;;;;15.48;8.27;;;3.90;99.90;;;;;;5036849;28;20560;-75
2022/04/05 05:10:19;;;;;;;12.30;7.70;;;3.80;99.90;;;;;;5031541;28;20112;-74
2022/04/05 05:12:45;;;;;;;11.82;7.55;;;3.90;99.90;;;;;;5019043;28;20079;-75
2022/04/05 05:15:17;;;;;;;13.40;7.68;;;3.80;99.90;;;;;;5014091;28;20072;-75
2022/04/05 05:17:45;;;;;;;18.27;10.82;;;4.00;99.90;;;;;;5015478;28;20029;-75
2022/04/05 05:20:11;;;;;;;14.52;8.57;;;4.10;99.90;;;;;;5022711;28;20064;-75
2022/04/05 05:22:39;;;;;;;14.57;7.53;;;4.40;99.90;;;;;;5032062;28;20104;-74
2022/04/05 05:25:05;;;;;;;11.43;6.82;;;4.40;99.90;;;;;;5041644;28;20036;-77
2022/04/05 05:27:31;;;;;;;13.68;7.50;;;4.60;99.80;;;;;;5036678;28;20037;-73
2022/04/05 05:29:56;;;;;;;11.68;7.68;;;4.60;99.70;;;;;;5040607;28;20036;-75
2022/04/05 05:32:22;;;;;;;13.60;7.85;;;4.50;99.80;;;;;;5032479;28;20553;-74
2022/04/05 05:34:48;;;;;;;12.18;7.80;;;4.50;99.80;;;;;;5034390;28;20957;-79
2022/04/05 05:37:14;;;;;;;12.45;7.72;;;4.70;99.70;;;;;;5039512;28;20040;-73
2022/04/05 05:39:40;;;;;;;15.32;8.10;;;4.40;99.90;;;;;;5023988;28;20034;-73
2022/04/05 05:42:07;;;;;;;11.70;7.82;;;4.40;99.90;;;;;;5040799;28;20055;-74
2022/04/05 05:44:34;;;;;;;17.00;8.68;;;4.50;99.90;;;;;;5033121;28;20040;-73
2022/04/05 05:47:01;;;;;;;14.52;8.20;;;4.20;99.90;;;;;;5043338;28;20390;-74
2022/04/05 05:49:26;;;;;;;11.77;7.57;;;4.30;99.90;;;;;;5043573;28;20112;-74
2022/04/05 05:51:52;;;;;;;11.07;7.47;;;4.30;99.90;;;;;;5042628;28;20120;-74
2022/04/05 05:54:18;;;;;;;13.60;7.78;;;4.30;99.90;;;;;;5029945;28;20037;-74
2022/04/05 05:56:44;;;;;;;13.80;7.43;;;4.10;99.90;;;;;;5036693;28;20119;-73
2022/04/05 05:59:10;;;;;;;14.30;9.18;;;4.10;99.90;;;;;;5035529;28;20043;-75
2022/04/05 06:01:36;;;;;;;12.52;7.93;;;4.20;99.90;;;;;;5035546;28;20129;-74
2022/04/05 06:04:01;;;;;;;13.57;8.10;;;4.30;99.90;;;;;;5038085;28;20068;-74
2022/04/05 06:06:30;;;;;;;12.10;7.93;;;4.50;99.90;;;;;;5046873;28;20125;-74
2022/04/05 06:08:56;;;;;;;14.07;8.63;;;4.60;99.90;;;;;;5046801;28;20037;-77
2022/04/05 06:11:22;;;;;;;13.63;8.38;;;4.70;99.90;;;;;;5038625;28;20464;-73
2022/04/05 06:13:49;;;;;;;16.05;9.30;;;4.80;99.90;;;;;;5044618;28;20056;-74
2022/04/05 06:16:15;;;;;;;14.20;8.77;;;4.80;99.80;;;;;;5044929;28;20156;-74
2022/04/05 06:18:47;;;;;;;13.32;7.90;;;4.80;99.70;;;;;;5033437;28;20056;-74
2022/04/05 06:21:16;;;;;;;11.10;7.30;;;4.80;99.90;;;;;;5020957;28;20475;-74
2022/04/05 06:23:42;;;;;;;13.85;8.25;;;5.00;99.70;;;;;;5030913;28;20034;-75
2022/04/05 06:26:08;;;;;;;12.43;7.30;;;5.00;99.60;;;;;;5030244;28;20033;-74
2022/04/05 06:28:34;;;;;;;14.20;9.13;;;5.10;99.40;;;;;;5035671;28;20044;-74
2022/04/05 06:30:59;;;;;;;15.65;7.90;;;5.20;99.20;;;;;;5034353;28;20029;-74
2022/04/05 06:33:25;;;;;;;16.42;9.60;;;5.00;99.90;;;;;;5032527;28;20076;-74
2022/04/05 06:35:54;;;;;;;13.27;8.05;;;5.00;99.90;;;;;;5032695;28;20543;-74
2022/04/05 06:38:20;;;;;;;14.93;8.32;;;5.00;99.90;;;;;;5041423;28;20029;-74
2022/04/05 06:40:46;;;;;;;12.23;8.30;;;5.20;99.00;;;;;;5043502;28;20045;-74
2022/04/05 06:43:16;;;;;;;12.82;6.65;;;5.30;99.10;;;;;;5036338;28;20041;-74
2022/04/05 06:45:43;;;;;;;13.32;8.10;;;5.40;99.30;;;;;;5040298;28;20044;-74
2022/04/05 06:48:09;;;;;;;13.90;7.78;;;5.50;99.00;;;;;;5040627;28;20029;-74
2022/04/05 06:50:35;;;;;;;16.38;8.18;;;5.60;98.30;;;;;;5044195;28;20040;-74
2022/04/05 06:53:03;;;;;;;12.65;7.85;;;5.60;98.90;;;;;;5042223;28;20036;-75
2022/04/05 06:55:28;;;;;;;11.73;8.27;;;5.80;98.20;;;;;;5037571;28;20029;-74
2022/04/05 06:57:55;;;;;;;10.95;7.38;;;6.70;97.80;;;;;;5035807;28;20762;-74
2022/04/05 07:00:23;;;;;;;16.27;7.93;;;8.40;94.30;;;;;;5043416;28;20029;-74
2022/04/05 07:02:51;;;;;;;11.35;6.65;;;10.70;91.80;;;;;;5039205;28;20041;-74
2022/04/05 07:05:17;;;;;;;14.57;7.95;;;11.80;86.70;;;;;;5033885;28;20049;-74
2022/04/05 07:07:43;;;;;;;12.63;7.13;;;12.00;87.60;;;;;;5042177;28;20044;-75
2022/04/05 07:10:10;;;;;;;13.98;8.18;;;12.90;86.90;;;;;;5041390;28;20033;-73
2022/04/05 07:12:36;;;;;;;12.63;7.38;;;13.60;84.20;;;;;;5041008;28;20025;-76
2022/04/05 07:15:03;;;;;;;12.02;8.38;;;13.00;83.30;;;;;;5035976;28;20435;-75
2022/04/05 07:17:29;;;;;;;11.30;8.07;;;13.90;81.60;;;;;;5040630;28;20036;-75
2022/04/05 07:19:55;;;;;;;12.15;7.97;;;14.10;81.90;;;;;;5031894;28;20640;-75
2022/04/05 07:22:21;;;;;;;12.15;8.57;;;13.50;82.00;;;;;;5023803;28;20052;-74
2022/04/05 07:24:47;;;;;;;13.38;7.35;;;12.10;83.60;;;;;;5033930;28;20076;-75
2022/04/05 07:27:14;;;;;;;11.55;7.75;;;9.60;90.30;;;;;;5042881;28;20069;-74
2022/04/05 07:29:40;;;;;;;12.77;7.68;;;8.20;92.60;;;;;;5042536;28;20040;-75
2022/04/05 07:32:06;;;;;;;13.52;7.63;;;7.40;94.10;;;;;;5040978;28;20364;-74
2022/04/05 07:34:32;;;;;;;13.68;8.23;;;7.00;94.80;;;;;;5039062;28;20021;-74
2022/04/05 07:36:58;;;;;;;15.60;8.52;;;6.80;95.20;;;;;;5036302;28;20036;-74
2022/04/05 07:39:24;;;;;;;11.93;7.28;;;6.60;95.40;;;;;;5040056;28;20533;-75
2022/04/05 07:41:50;;;;;;;13.40;7.70;;;6.60;95.50;;;;;;5039422;28;20037;-75
2022/04/05 07:44:16;;;;;;;12.50;7.65;;;6.40;95.70;;;;;;5032680;28;20071;-75
2022/04/05 07:46:42;;;;;;;13.10;8.05;;;6.60;95.80;;;;;;5033232;28;20064;-75
2022/04/05 07:49:08;;;;;;;13.48;9.50;;;6.70;95.70;;;;;;5041198;28;20137;-75
2022/04/05 07:51:34;;;;;;;11.90;8.13;;;6.90;95.50;;;;;;5037986;28;20025;-77
2022/04/05 07:53:59;;;;;;;12.65;8.30;;;6.90;95.60;;;;;;5036168;28;20152;-76
2022/04/05 07:56:25;;;;;;;16.15;8.00;;;7.00;95.30;;;;;;5019282;28;21573;-75
2022/04/05 07:58:50;;;;;;;12.00;8.82;;;7.70;96.70;;;;;;5018250;28;20041;-73
2022/04/05 08:01:16;;;;;;;14.73;7.38;;;7.50;94.80;;;;;;5023997;28;20040;-76
2022/04/05 08:03:42;;;;;;;13.65;8.48;;;8.10;97.10;;;;;;5025598;28;20434;-76
2022/04/05 08:06:08;;;;;;;15.50;7.50;;;8.10;94.00;;;;;;5037538;28;20560;-72
2022/04/05 08:08:33;;;;;;;12.98;8.07;;;8.10;95.40;;;;;;5035756;28;20041;-74
2022/04/05 08:11:00;;;;;;;13.25;8.48;;;8.30;93.50;;;;;;5034197;28;20029;-74
2022/04/05 08:13:28;;;;;;;14.50;8.38;;;7.90;94.80;;;;;;5038034;28;21312;-73
2022/04/05 08:15:55;;;;;;;11.52;7.50;;;7.70;93.90;;;;;;5037379;28;20037;-74
2022/04/05 08:18:21;;;;;;;14.07;9.23;;;7.80;93.90;;;;;;5041682;28;20439;-74
2022/04/05 08:20:47;;;;;;;12.32;7.53;;;7.90;94.00;;;;;;5028683;28;20029;-74
2022/04/05 08:23:14;;;;;;;13.93;8.75;;;7.90;94.40;;;;;;5040091;28;20036;-74
2022/04/05 08:25:40;;;;;;;16.95;8.60;;;7.90;93.70;;;;;;5041072;28;20076;-72
2022/04/05 08:28:06;;;;;;;12.55;8.05;;;7.90;93.90;;;;;;5035747;28;20065;-72
2022/04/05 08:30:32;;;;;;;16.58;9.35;;;7.90;94.40;;;;;;5038935;28;20025;-72
2022/04/05 08:32:58;;;;;;;16.40;8.32;;;7.90;93.40;;;;;;5036993;28;20025;-72
2022/04/05 08:35:24;;;;;;;17.15;8.55;;;8.00;94.00;;;;;;5032159;28;20041;-72
2022/04/05 08:37:52;;;;;;;11.95;7.65;;;8.10;94.10;;;;;;5033678;28;20029;-72
2022/04/05 08:40:19;;;;;;;12.40;8.40;;;8.10;94.10;;;;;;5041157;28;20032;-73
2022/04/05 08:42:50;;;;;;;13.77;8.32;;;8.10;93.50;;;;;;5042396;28;20033;-72
2022/04/05 08:45:19;;;;;;;12.45;8.40;;;8.20;93.90;;;;;;5032387;28;20041;-73
2022/04/05 08:47:50;;;;;;;14.27;9.27;;;8.10;94.30;;;;;;5033849;28;20040;-72
2022/04/05 08:50:23;;;;;;;15.38;9.25;;;8.20;93.70;;;;;;5042439;28;20045;-72
2022/04/05 08:52:49;;;;;;;13.23;7.75;;;8.20;93.80;;;;;;5035677;28;20083;-72
2022/04/05 08:55:15;;;;;;;13.43;7.80;;;8.40;94.40;;;;;;5038790;28;20044;-72
2022/04/05 08:57:42;;;;;;;13.63;8.25;;;8.30;93.30;;;;;;5039494;28;20020;-72
2022/04/05 09:00:10;;;;;;;13.55;8.25;;;8.40;93.40;;;;;;5038321;28;20111;-73
2022/04/05 09:02:36;;;;;;;14.13;8.88;;;11.60;91.30;;;;;;5039221;28;20103;-72
2022/04/05 09:05:02;;;;;;;14.55;8.98;;;14.00;86.10;;;;;;5037771;28;20047;-72
2022/04/05 09:07:32;;;;;;;13.52;8.75;;;15.10;84.20;;;;;;5037290;28;20033;-73
2022/04/05 09:10:17;;;;;;;11.60;7.93;;;15.50;82.50;;;;;;5037007;28;20037;-72
2022/04/05 09:12:51;;;;;;;13.88;8.48;;;15.40;81.30;;;;;;5033329;28;20041;-72
2022/04/05 09:15:16;;;;;;;14.23;8.68;;;15.20;81.10;;;;;;5037917;28;20040;-72
2022/04/05 09:17:44;;;;;;;12.15;7.55;;;15.60;80.70;;;;;;5041526;28;20086;-73
2022/04/05 09:20:14;;;;;;;14.63;9.32;;;15.40;82.20;;;;;;5040031;28;20060;-72
2022/04/05 09:22:40;;;;;;;13.52;8.75;;;15.70;80.60;;;;;;5036986;28;20040;-72
2022/04/05 09:25:15;;;;;;;14.77;8.80;;;15.50;80.80;;;;;;5029451;28;20048;-72
2022/04/05 09:27:50;;;;;;;14.10;8.75;;;15.20;81.10;;;;;;5042778;28;20029;-72
2022/04/05 09:30:23;;;;;;;12.23;8.75;;;16.20;79.50;;;;;;5038615;28;20430;-73
2022/04/05 09:32:50;;;;;;;13.70;8.75;;;16.60;79.40;;;;;;5041523;28;20217;-73
2022/04/05 09:35:18;;;;;;;14.25;9.55;;;15.90;79.00;;;;;;5032063;28;20505;-73
2022/04/05 09:37:45;;;;;;;12.15;8.20;;;15.50;80.30;;;;;;5040299;28;20079;-72
2022/04/05 09:40:32;;;;;;;14.05;8.77;;;15.80;78.20;;;;;;5040388;28;20087;-73
2022/04/05 09:43:04;;;;;;;12.43;8.73;;;14.30;78.90;;;;;;5040980;28;20029;-72
2022/04/05 09:45:49;;;;;;;12.07;8.23;;;13.90;80.10;;;;;;5041004;28;20036;-73
2022/04/05 09:48:16;;;;;;;14.35;8.35;;;12.30;82.80;;;;;;5042453;28;20033;-73
2022/04/05 09:51:04;;;;;;;14.15;9.10;;;11.80;84.20;;;;;;5040244;28;20095;-72
2022/04/05 09:53:46;;;;;;;20.70;9.18;;;11.30;86.90;;;;;;5032859;28;20048;-72
2022/04/05 09:56:24;;;;;;;13.02;8.32;;;11.20;87.60;;;;;;5032811;28;20186;-73
2022/04/05 09:58:52;;;;;;;13.60;8.40;;;11.20;86.80;;;;;;5040595;28;20040;-73
2022/04/05 10:01:20;;;;;;;15.15;8.73;;;11.40;86.20;;;;;;5036511;28;20036;-73
2022/04/05 10:03:58;;;;;;;15.70;8.75;;;11.50;85.50;;;;;;5038464;28;20074;-72
2022/04/05 10:06:24;;;;;;;13.02;8.18;;;11.20;85.10;;;;;;5032283;28;20036;-73
2022/04/05 10:08:50;;;;;;;13.73;7.80;;;11.00;86.00;;;;;;5039940;28;20483;-72
2022/04/05 10:11:15;;;;;;;15.20;8.73;;;11.00;85.30;;;;;;5030966;28;20036;-73
2022/04/05 10:13:42;;;;;;;11.98;8.02;;;11.20;85.20;;;;;;5034058;28;20032;-72
2022/04/05 10:16:11;;;;;;;14.43;8.75;;;11.30;84.80;;;;;;5028731;28;20486;-72
2022/04/05 10:18:37;;;;;;;10.75;7.53;;;11.30;84.30;;;;;;5040282;28;20067;-73
2022/04/05 10:21:04;;;;;;;14.55;8.00;;;11.40;85.40;;;;;;5041317;28;20080;-72
2022/04/05 10:23:31;;;;;;;11.68;7.90;;;11.60;84.40;;;;;;5037992;28;20044;-72
2022/04/05 10:25:57;;;;;;;12.25;8.82;;;11.60;83.00;;;;;;5035742;28;20036;-72
2022/04/05 10:28:28;;;;;;;11.45;7.63;;;11.70;83.10;;;;;;5038552;28;20633;-73
2022/04/05 10:31:05;;;;;;;13.30;8.02;;;12.00;83.40;;;;;;5044707;28;20090;-73
2022/04/05 10:33:38;;;;;;;12.13;7.82;;;12.20;83.80;;;;;;5041049;28;20036;-72
2022/04/05 10:36:04;;;;;;;14.25;9.20;;;11.90;82.90;;;;;;5041163;28;21235;-72
2022/04/05 10:38:30;;;;;;;11.88;8.15;;;12.00;83.60;;;;;;5044498;28;20486;-73
2022/04/05 10:41:14;;;;;;;13.75;7.95;;;12.10;84.00;;;;;;5043691;28;20087;-73
2022/04/05 10:43:41;;;;;;;9.27;6.63;;;12.40;84.60;;;;;;5043416;28;20032;-73
2022/04/05 10:46:08;;;;;;;11.85;7.95;;;12.60;81.80;;;;;;5040660;28;20033;-72
2022/04/05 10:48:35;;;;;;;9.35;6.57;;;12.80;82.80;;;;;;5047642;28;20025;-72
2022/04/05 10:51:00;;;;;;;12.18;6.50;;;12.60;80.90;;;;;;5045561;28;20127;-73
2022/04/05 10:53:32;;;;;;;10.25;6.93;;;12.70;80.90;;;;;;5048947;28;20522;-73
2022/04/05 10:56:04;;;;;;;10.65;6.15;;;12.80;81.30;;;;;;5045002;28;20024;-73
2022/04/05 10:58:29;;;;;;;10.18;7.10;;;12.80;80.10;;;;;;5041538;28;20057;-74
2022/04/05 11:01:23;;;;;;;10.55;6.18;;;13.00;80.80;;;;;;5041393;28;20036;-74
2022/04/05 11:04:14;;;;;;;11.57;6.88;;;13.40;81.50;;;;;;5044751;28;20132;-74
2022/04/05 11:06:59;;;;;;;12.10;6.55;;;13.30;80.30;;;;;;5043429;28;20021;-74
2022/04/05 11:09:25;;;;;;;12.45;5.95;;;13.70;80.90;;;;;;5039669;28;20029;-74
2022/04/05 11:11:52;;;;;;;11.90;5.60;;;14.10;79.50;;;;;;5045437;28;20025;-74
2022/04/05 11:14:42;;;;;;;7.55;4.28;;;14.00;77.80;;;;;;5043772;28;20387;-74
2022/04/05 11:17:14;;;;;;;10.35;4.70;;;14.10;77.30;;;;;;5040221;28;20039;-74
2022/04/05 11:19:44;;;;;;;5.85;3.92;;;13.70;76.10;;;;;;5043341;28;20029;-74
2022/04/05 11:22:21;;;;;;;6.53;4.43;;;13.80;76.90;;;;;;5046016;28;20045;-74
2022/04/05 11:24:51;;;;;;;14.90;4.80;;;14.20;80.00;;;;;;5046455;28;20139;-74
2022/04/05 11:27:42;;;;;;;7.55;5.10;;;14.30;79.80;;;;;;5044313;28;20063;-74
2022/04/05 11:30:23;;;;;;;6.57;4.13;;;14.30;79.00;;;;;;5038229;28;20476;-74
2022/04/05 11:33:09;;;;;;;7.70;4.80;;;14.50;78.30;;;;;;5048695;28;20037;-75
2022/04/05 11:35:40;;;;;;;7.20;5.00;;;14.70;78.00;;;;;;5043743;28;20029;-74
2022/04/05 11:38:31;;;;;;;9.50;4.70;;;14.80;79.70;;;;;;5044916;28;20091;-74
2022/04/05 11:41:01;;;;;;;9.27;5.75;;;14.90;78.00;;;;;;5030805;28;20124;-74
2022/04/05 11:43:28;;;;;;;9.70;5.75;;;14.60;76.90;;;;;;5043456;28;20678;-74
2022/04/05 11:45:56;;;;;;;8.70;5.55;;;14.60;79.80;;;;;;5046690;28;20045;-74
2022/04/05 11:48:26;;;;;;;10.10;5.88;;;14.60;79.50;;;;;;5047729;28;20475;-74
2022/04/05 11:50:52;;;;;;;9.57;5.53;;;14.60;79.10;;;;;;5044377;28;20025;-74
2022/04/05 11:53:27;;;;;;;8.27;5.45;;;14.80;78.70;;;;;;5037103;28;20053;-74
2022/04/05 11:56:17;;;;;;;9.90;6.18;;;14.90;79.70;;;;;;5047328;28;20025;-74
2022/04/05 11:58:46;;;;;;;7.47;5.35;;;15.30;76.90;;;;;;5044253;28;20029;-74
2022/04/05 12:01:14;;;;;;;8.32;5.43;;;15.20;79.10;;;;;;5035124;28;20022;-74
2022/04/05 12:03:58;;;;;;;9.93;5.38;;;15.10;77.60;;;;;;5042270;28;20077;-74
2022/04/05 12:06:32;;;;;;;8.05;4.63;;;15.10;78.80;;;;;;5040225;28;20048;-74
2022/04/05 12:09:10;;;;;;;7.18;4.95;;;15.20;78.20;;;;;;5041111;28;20035;-74
2022/04/05 12:11:38;;;;;;;9.65;4.93;;;15.00;76.80;;;;;;5041137;28;20044;-74
2022/04/05 12:14:06;;;;;;;6.50;4.65;;;15.20;77.50;;;;;;5037202;28;20152;-74
2022/04/05 12:16:58;;;;;;;9.43;4.78;;;15.20;75.90;;;;;;5036686;28;20040;-74
2022/04/05 12:19:42;;;;;;;8.20;5.72;;;14.90;76.10;;;;;;5038353;28;20194;-74
2022/04/05 12:22:14;;;;;;;11.57;5.20;;;15.00;78.70;;;;;;5038734;28;20034;-74
2022/04/05 12:24:51;;;;;;;10.20;5.50;;;15.30;77.80;;;;;;5039025;28;20055;-74
2022/04/05 12:27:24;;;;;;;10.43;5.78;;;15.60;76.70;;;;;;5042403;28;20033;-74
2022/04/05 12:29:56;;;;;;;8.55;5.47;;;15.60;78.40;;;;;;5035304;28;20044;-74
2022/04/05 12:32:22;;;;;;;9.63;5.85;;;15.80;77.80;;;;;;5046237;28;20036;-74
2022/04/05 12:34:48;;;;;;;11.13;5.95;;;15.60;77.00;;;;;;5040060;28;20043;-74
2022/04/05 12:37:15;;;;;;;9.02;6.20;;;15.90;79.10;;;;;;5047080;28;20033;-74
2022/04/05 12:39:46;;;;;;;8.48;5.50;;;16.00;78.30;;;;;;5045692;28;20021;-74
2022/04/05 12:42:12;;;;;;;9.90;5.68;;;16.00;77.70;;;;;;5045884;28;20103;-74
2022/04/05 12:44:41;;;;;;;7.93;5.65;;;16.30;76.70;;;;;;5038339;28;20502;-74
2022/04/05 12:47:12;;;;;;;8.82;6.40;;;16.40;76.70;;;;;;5045470;28;20060;-74